sensor_id;sensor_type;location;lat;lon;timestamp;noise_LAeq;noise_LA_min;noise_LA_max;noise_LA01;noise_LA95
67300;Laerm;57658;51.436;5.980;2022-07-06T00:00:05;37.39;34.66;40.14;;
67300;Laerm;57658;51.436;5.980;2022-07-06T00:00:15;36.24;33.81;39.55;;
67300;Laerm;57658;51.436;5.980;2022-07-06T00:00:26;38.01;34.15;43.84;;
67300;Laerm;57658;51.436;5.980;2022-07-06T00:00:36;35.29;32.48;39.95;;
67300;Laerm;57658;51.436;5.980;2022-07-06T00:00:46;35.12;32.25;40.78;;
67300;Laerm;57658;51.436;5.980;2022-07-06T00:00:56;34.59;32.13;38.87;;
67300;Laerm;57658;51.436;5.980;2022-07-06T00:01:07;32.65;30.63;35.54;;
67300;Laerm;57658;51.436;5.980;2022-07-06T00:01:18;32.00;30.30;34.07;;
67300;Laerm;57658;51.436;5.980;2022-07-06T00:01:28;33.65;31.65;35.88;;
67300;Laerm;57658;51.436;5.980;2022-07-06T00:01:39;32.64;31.04;36.72;;
67300;Laerm;57658;51.436;5.980;2022-07-06T00:01:49;36.03;31.92;41.14;;
67300;Laerm;57658;51.436;5.980;2022-07-06T00:02:01;40.49;36.55;45.88;;
67300;Laerm;57658;51.436;5.980;2022-07-06T00:02:11;52.24;36.39;58.43;;
67300;Laerm;57658;51.436;5.980;2022-07-06T00:02:22;51.26;42.93;57.21;;
67300;Laerm;57658;51.436;5.980;2022-07-06T00:02:32;45.04;40.76;51.95;;
67300;Laerm;57658;51.436;5.980;2022-07-06T00:02:42;58.61;50.46;64.82;;
67300;Laerm;57658;51.436;5.980;2022-07-06T00:02:53;45.34;41.09;55.77;;
67300;Laerm;57658;51.436;5.980;2022-07-06T00:03:03;38.46;34.85;42.80;;
67300;Laerm;57658;51.436;5.980;2022-07-06T00:03:13;35.44;33.13;37.64;;
67300;Laerm;57658;51.436;5.980;2022-07-06T00:03:23;36.59;33.42;42.17;;
67300;Laerm;57658;51.436;5.980;2022-07-06T00:03:34;39.22;35.55;42.79;;
67300;Laerm;57658;51.436;5.980;2022-07-06T00:03:44;36.50;33.12;39.28;;
67300;Laerm;57658;51.436;5.980;2022-07-06T00:03:54;36.61;33.35;41.86;;
67300;Laerm;57658;51.436;5.980;2022-07-06T00:04:05;33.23;31.51;37.72;;
67300;Laerm;57658;51.436;5.980;2022-07-06T00:04:16;33.13;31.26;35.65;;
67300;Laerm;57658;51.436;5.980;2022-07-06T00:04:26;32.75;30.98;34.79;;
67300;Laerm;57658;51.436;5.980;2022-07-06T00:04:36;32.00;30.78;33.30;;
67300;Laerm;57658;51.436;5.980;2022-07-06T00:04:47;32.26;30.39;34.74;;
67300;Laerm;57658;51.436;5.980;2022-07-06T00:04:57;32.93;31.02;35.82;;
67300;Laerm;57658;51.436;5.980;2022-07-06T00:05:08;33.32;30.79;39.85;;
67300;Laerm;57658;51.436;5.980;2022-07-06T00:05:18;37.64;32.03;43.89;;
67300;Laerm;57658;51.436;5.980;2022-07-06T00:05:28;39.95;33.52;46.34;;
67300;Laerm;57658;51.436;5.980;2022-07-06T00:05:39;40.09;33.75;47.29;;
67300;Laerm;57658;51.436;5.980;2022-07-06T00:05:49;36.29;32.76;44.31;;
67300;Laerm;57658;51.436;5.980;2022-07-06T00:05:59;36.57;32.59;42.89;;
67300;Laerm;57658;51.436;5.980;2022-07-06T00:06:09;32.86;30.92;35.20;;
67300;Laerm;57658;51.436;5.980;2022-07-06T00:06:20;31.86;30.52;33.34;;
67300;Laerm;57658;51.436;5.980;2022-07-06T00:06:30;34.02;31.26;38.73;;
67300;Laerm;57658;51.436;5.980;2022-07-06T00:06:41;33.30;31.33;36.14;;
67300;Laerm;57658;51.436;5.980;2022-07-06T00:06:51;32.61;30.55;35.42;;
67300;Laerm;57658;51.436;5.980;2022-07-06T00:07:01;32.61;29.97;34.88;;
67300;Laerm;57658;51.436;5.980;2022-07-06T00:07:11;32.66;31.09;35.00;;
67300;Laerm;57658;51.436;5.980;2022-07-06T00:07:24;32.06;30.03;35.63;;
67300;Laerm;57658;51.436;5.980;2022-07-06T00:07:34;31.37;30.38;32.87;;
67300;Laerm;57658;51.436;5.980;2022-07-06T00:07:44;31.65;30.27;33.14;;
67300;Laerm;57658;51.436;5.980;2022-07-06T00:07:55;32.00;30.61;33.81;;
67300;Laerm;57658;51.436;5.980;2022-07-06T00:08:06;32.34;30.78;33.79;;
67300;Laerm;57658;51.436;5.980;2022-07-06T00:08:17;34.52;30.95;39.07;;
67300;Laerm;57658;51.436;5.980;2022-07-06T00:08:27;37.26;34.01;41.02;;
67300;Laerm;57658;51.436;5.980;2022-07-06T00:08:37;39.74;34.14;46.79;;
67300;Laerm;57658;51.436;5.980;2022-07-06T00:08:47;36.52;33.05;40.08;;
67300;Laerm;57658;51.436;5.980;2022-07-06T00:08:58;35.02;32.56;37.65;;
67300;Laerm;57658;51.436;5.980;2022-07-06T00:09:08;32.98;31.26;37.12;;
67300;Laerm;57658;51.436;5.980;2022-07-06T00:09:18;33.50;31.46;37.31;;
67300;Laerm;57658;51.436;5.980;2022-07-06T00:09:29;33.01;30.98;34.75;;
67300;Laerm;57658;51.436;5.980;2022-07-06T00:09:40;32.89;31.16;34.85;;
67300;Laerm;57658;51.436;5.980;2022-07-06T00:09:50;33.05;31.41;34.78;;
67300;Laerm;57658;51.436;5.980;2022-07-06T00:10:00;33.42;31.07;37.81;;
67300;Laerm;57658;51.436;5.980;2022-07-06T00:10:12;32.86;31.24;35.86;;
67300;Laerm;57658;51.436;5.980;2022-07-06T00:10:22;33.23;31.67;35.42;;
67300;Laerm;57658;51.436;5.980;2022-07-06T00:10:32;32.47;31.11;33.93;;
67300;Laerm;57658;51.436;5.980;2022-07-06T00:10:43;32.43;30.41;34.05;;
67300;Laerm;57658;51.436;5.980;2022-07-06T00:10:53;32.94;31.73;34.38;;
67300;Laerm;57658;51.436;5.980;2022-07-06T00:11:04;32.67;30.90;34.15;;
67300;Laerm;57658;51.436;5.980;2022-07-06T00:11:14;32.36;30.53;33.93;;
67300;Laerm;57658;51.436;5.980;2022-07-06T00:11:25;31.85;30.47;33.31;;
67300;Laerm;57658;51.436;5.980;2022-07-06T00:11:35;32.21;30.71;34.14;;
67300;Laerm;57658;51.436;5.980;2022-07-06T00:11:45;32.40;30.85;34.34;;
67300;Laerm;57658;51.436;5.980;2022-07-06T00:11:56;33.35;31.32;36.24;;
67300;Laerm;57658;51.436;5.980;2022-07-06T00:12:06;40.71;34.55;45.31;;
67300;Laerm;57658;51.436;5.980;2022-07-06T00:12:16;56.15;43.45;63.75;;
67300;Laerm;57658;51.436;5.980;2022-07-06T00:12:27;48.65;40.51;55.11;;
67300;Laerm;57658;51.436;5.980;2022-07-06T00:12:37;44.90;37.89;51.56;;
67300;Laerm;57658;51.436;5.980;2022-07-06T00:12:47;42.62;38.30;46.38;;
67300;Laerm;57658;51.436;5.980;2022-07-06T00:12:58;44.26;39.34;48.79;;
67300;Laerm;57658;51.436;5.980;2022-07-06T00:13:08;51.87;37.49;56.89;;
67300;Laerm;57658;51.436;5.980;2022-07-06T00:13:18;56.92;49.94;65.76;;
67300;Laerm;57658;51.436;5.980;2022-07-06T00:13:28;56.11;37.21;62.86;;
67300;Laerm;57658;51.436;5.980;2022-07-06T00:13:39;39.04;33.79;56.32;;
67300;Laerm;57658;51.436;5.980;2022-07-06T00:13:49;61.93;33.91;83.41;;
67300;Laerm;57658;51.436;5.980;2022-07-06T00:14:00;45.86;33.44;60.42;;
67300;Laerm;57658;51.436;5.980;2022-07-06T00:14:10;36.81;32.86;50.18;;
67300;Laerm;57658;51.436;5.980;2022-07-06T00:14:20;40.33;35.19;45.84;;
67300;Laerm;57658;51.436;5.980;2022-07-06T00:14:30;33.65;31.75;38.65;;
67300;Laerm;57658;51.436;5.980;2022-07-06T00:14:41;36.79;33.09;43.33;;
67300;Laerm;57658;51.436;5.980;2022-07-06T00:14:51;33.18;30.69;39.01;;
67300;Laerm;57658;51.436;5.980;2022-07-06T00:15:01;32.26;30.75;33.78;;
67300;Laerm;57658;51.436;5.980;2022-07-06T00:15:12;32.33;30.53;34.01;;
67300;Laerm;57658;51.436;5.980;2022-07-06T00:15:22;33.15;31.50;38.61;;
67300;Laerm;57658;51.436;5.980;2022-07-06T00:15:32;33.93;32.09;36.17;;
67300;Laerm;57658;51.436;5.980;2022-07-06T00:15:43;33.82;31.81;36.89;;
67300;Laerm;57658;51.436;5.980;2022-07-06T00:15:53;33.50;31.69;36.08;;
67300;Laerm;57658;51.436;5.980;2022-07-06T00:16:04;34.84;31.03;45.00;;
67300;Laerm;57658;51.436;5.980;2022-07-06T00:16:14;41.31;31.39;56.38;;
67300;Laerm;57658;51.436;5.980;2022-07-06T00:16:24;40.53;31.81;52.28;;
67300;Laerm;57658;51.436;5.980;2022-07-06T00:16:35;33.62;31.40;40.14;;
67300;Laerm;57658;51.436;5.980;2022-07-06T00:16:45;32.41;30.33;35.85;;
67300;Laerm;57658;51.436;5.980;2022-07-06T00:16:56;32.03;30.63;33.20;;
67300;Laerm;57658;51.436;5.980;2022-07-06T00:17:06;32.38;30.81;39.55;;
67300;Laerm;57658;51.436;5.980;2022-07-06T00:17:16;32.03;30.62;35.22;;
67300;Laerm;57658;51.436;5.980;2022-07-06T00:17:27;31.81;30.23;34.60;;
67300;Laerm;57658;51.436;5.980;2022-07-06T00:17:37;33.25;30.55;37.35;;
67300;Laerm;57658;51.436;5.980;2022-07-06T00:17:47;32.52;30.95;35.70;;
67300;Laerm;57658;51.436;5.980;2022-07-06T00:17:58;32.54;30.87;35.07;;
67300;Laerm;57658;51.436;5.980;2022-07-06T00:18:08;33.48;32.02;36.21;;
67300;Laerm;57658;51.436;5.980;2022-07-06T00:18:18;32.97;31.20;36.53;;
67300;Laerm;57658;51.436;5.980;2022-07-06T00:18:29;34.40;31.85;37.92;;
67300;Laerm;57658;51.436;5.980;2022-07-06T00:18:39;33.61;31.78;35.96;;
67300;Laerm;57658;51.436;5.980;2022-07-06T00:18:50;38.08;32.63;51.68;;
67300;Laerm;57658;51.436;5.980;2022-07-06T00:19:00;39.59;35.86;43.30;;
67300;Laerm;57658;51.436;5.980;2022-07-06T00:19:10;38.13;33.16;42.81;;
67300;Laerm;57658;51.436;5.980;2022-07-06T00:19:21;33.76;31.61;36.48;;
67300;Laerm;57658;51.436;5.980;2022-07-06T00:19:31;33.66;31.90;36.61;;
67300;Laerm;57658;51.436;5.980;2022-07-06T00:19:41;34.93;32.06;39.57;;
67300;Laerm;57658;51.436;5.980;2022-07-06T00:19:51;34.98;32.53;39.27;;
67300;Laerm;57658;51.436;5.980;2022-07-06T00:20:02;33.73;31.19;37.39;;
67300;Laerm;57658;51.436;5.980;2022-07-06T00:20:12;32.57;30.91;36.92;;
67300;Laerm;57658;51.436;5.980;2022-07-06T00:20:23;32.49;30.15;35.88;;
67300;Laerm;57658;51.436;5.980;2022-07-06T00:20:33;32.91;30.95;36.38;;
67300;Laerm;57658;51.436;5.980;2022-07-06T00:20:43;31.98;30.58;36.22;;
67300;Laerm;57658;51.436;5.980;2022-07-06T00:20:54;32.33;30.67;35.81;;
67300;Laerm;57658;51.436;5.980;2022-07-06T00:21:04;33.92;32.00;37.51;;
67300;Laerm;57658;51.436;5.980;2022-07-06T00:21:14;32.50;30.80;34.39;;
67300;Laerm;57658;51.436;5.980;2022-07-06T00:21:24;33.24;31.13;36.29;;
67300;Laerm;57658;51.436;5.980;2022-07-06T00:21:35;33.18;31.14;35.63;;
67300;Laerm;57658;51.436;5.980;2022-07-06T00:21:45;33.59;31.45;42.90;;
67300;Laerm;57658;51.436;5.980;2022-07-06T00:21:55;33.92;31.21;41.75;;
67300;Laerm;57658;51.436;5.980;2022-07-06T00:22:06;33.12;30.96;43.34;;
67300;Laerm;57658;51.436;5.980;2022-07-06T00:22:16;33.64;31.52;37.28;;
67300;Laerm;57658;51.436;5.980;2022-07-06T00:22:26;33.24;30.60;37.49;;
67300;Laerm;57658;51.436;5.980;2022-07-06T00:22:36;33.24;30.91;42.84;;
67300;Laerm;57658;51.436;5.980;2022-07-06T00:22:47;33.37;31.90;36.90;;
67300;Laerm;57658;51.436;5.980;2022-07-06T00:22:57;34.36;31.67;44.25;;
67300;Laerm;57658;51.436;5.980;2022-07-06T00:23:07;33.22;31.45;37.32;;
67300;Laerm;57658;51.436;5.980;2022-07-06T00:23:18;33.40;31.72;36.33;;
67300;Laerm;57658;51.436;5.980;2022-07-06T00:23:28;33.55;32.04;35.11;;
67300;Laerm;57658;51.436;5.980;2022-07-06T00:23:38;34.82;32.64;37.83;;
67300;Laerm;57658;51.436;5.980;2022-07-06T00:23:48;34.67;33.16;36.39;;
67300;Laerm;57658;51.436;5.980;2022-07-06T00:23:59;34.98;31.11;44.80;;
67300;Laerm;57658;51.436;5.980;2022-07-06T00:24:09;32.54;30.98;38.50;;
67300;Laerm;57658;51.436;5.980;2022-07-06T00:24:20;33.92;31.45;36.14;;
67300;Laerm;57658;51.436;5.980;2022-07-06T00:24:30;35.08;32.70;38.38;;
67300;Laerm;57658;51.436;5.980;2022-07-06T00:24:41;34.60;32.42;38.48;;
67300;Laerm;57658;51.436;5.980;2022-07-06T00:24:51;34.81;32.37;39.91;;
67300;Laerm;57658;51.436;5.980;2022-07-06T00:25:01;34.72;31.72;44.57;;
67300;Laerm;57658;51.436;5.980;2022-07-06T00:25:12;35.39;32.31;53.91;;
67300;Laerm;57658;51.436;5.980;2022-07-06T00:25:22;34.82;31.46;47.68;;
67300;Laerm;57658;51.436;5.980;2022-07-06T00:25:32;53.63;32.93;63.11;;
67300;Laerm;57658;51.436;5.980;2022-07-06T00:25:43;52.03;43.91;60.66;;
67300;Laerm;57658;51.436;5.980;2022-07-06T00:25:53;55.14;45.78;63.44;;
67300;Laerm;57658;51.436;5.980;2022-07-06T00:26:03;54.47;43.66;62.69;;
67300;Laerm;57658;51.436;5.980;2022-07-06T00:26:14;39.44;31.42;45.95;;
67300;Laerm;57658;51.436;5.980;2022-07-06T00:26:24;34.16;30.70;42.97;;
67300;Laerm;57658;51.436;5.980;2022-07-06T00:26:34;33.64;31.07;41.02;;
67300;Laerm;57658;51.436;5.980;2022-07-06T00:26:45;34.97;31.49;42.84;;
67300;Laerm;57658;51.436;5.980;2022-07-06T00:26:55;33.29;31.11;39.05;;
67300;Laerm;57658;51.436;5.980;2022-07-06T00:27:05;50.74;31.31;65.33;;
67300;Laerm;57658;51.436;5.980;2022-07-06T00:27:15;36.48;31.21;46.04;;
67300;Laerm;57658;51.436;5.980;2022-07-06T00:27:26;35.64;32.20;38.42;;
67300;Laerm;57658;51.436;5.980;2022-07-06T00:27:36;33.73;31.36;38.49;;
67300;Laerm;57658;51.436;5.980;2022-07-06T00:27:46;36.47;32.13;41.83;;
67300;Laerm;57658;51.436;5.980;2022-07-06T00:27:56;35.36;32.72;38.05;;
67300;Laerm;57658;51.436;5.980;2022-07-06T00:28:06;36.10;33.59;38.89;;
67300;Laerm;57658;51.436;5.980;2022-07-06T00:28:18;35.15;31.12;39.03;;
67300;Laerm;57658;51.436;5.980;2022-07-06T00:28:29;35.37;32.44;39.40;;
67300;Laerm;57658;51.436;5.980;2022-07-06T00:28:39;32.44;30.70;35.19;;
67300;Laerm;57658;51.436;5.980;2022-07-06T00:28:49;32.11;30.56;34.32;;
67300;Laerm;57658;51.436;5.980;2022-07-06T00:29:00;32.25;30.78;33.51;;
67300;Laerm;57658;51.436;5.980;2022-07-06T00:29:10;32.88;30.74;43.63;;
67300;Laerm;57658;51.436;5.980;2022-07-06T00:29:20;34.31;30.74;44.87;;
67300;Laerm;57658;51.436;5.980;2022-07-06T00:29:30;34.17;31.91;45.55;;
67300;Laerm;57658;51.436;5.980;2022-07-06T00:29:41;36.15;30.85;47.16;;
67300;Laerm;57658;51.436;5.980;2022-07-06T00:29:53;32.69;30.54;41.09;;
67300;Laerm;57658;51.436;5.980;2022-07-06T00:30:04;32.50;30.11;41.99;;
67300;Laerm;57658;51.436;5.980;2022-07-06T00:30:14;32.89;30.66;44.58;;
67300;Laerm;57658;51.436;5.980;2022-07-06T00:30:24;32.35;30.37;41.15;;
67300;Laerm;57658;51.436;5.980;2022-07-06T00:30:35;31.38;29.99;33.32;;
67300;Laerm;57658;51.436;5.980;2022-07-06T00:30:45;31.56;30.26;34.07;;
67300;Laerm;57658;51.436;5.980;2022-07-06T00:30:55;31.93;30.38;33.46;;
67300;Laerm;57658;51.436;5.980;2022-07-06T00:31:06;31.86;30.65;32.99;;
67300;Laerm;57658;51.436;5.980;2022-07-06T00:31:16;32.04;30.66;35.45;;
67300;Laerm;57658;51.436;5.980;2022-07-06T00:31:26;31.95;30.54;33.46;;
67300;Laerm;57658;51.436;5.980;2022-07-06T00:31:37;31.56;30.52;33.26;;
67300;Laerm;57658;51.436;5.980;2022-07-06T00:31:47;31.87;30.63;33.35;;
67300;Laerm;57658;51.436;5.980;2022-07-06T00:31:57;32.18;30.66;33.89;;
67300;Laerm;57658;51.436;5.980;2022-07-06T00:32:07;32.25;30.65;36.60;;
67300;Laerm;57658;51.436;5.980;2022-07-06T00:32:18;31.86;30.71;34.99;;
67300;Laerm;57658;51.436;5.980;2022-07-06T00:32:28;31.91;30.65;36.47;;
67300;Laerm;57658;51.436;5.980;2022-07-06T00:32:39;31.69;30.36;33.51;;
67300;Laerm;57658;51.436;5.980;2022-07-06T00:32:49;31.93;30.68;33.56;;
67300;Laerm;57658;51.436;5.980;2022-07-06T00:32:59;31.95;30.47;33.64;;
67300;Laerm;57658;51.436;5.980;2022-07-06T00:33:09;31.96;30.56;34.15;;
67300;Laerm;57658;51.436;5.980;2022-07-06T00:33:20;32.41;30.28;34.53;;
67300;Laerm;57658;51.436;5.980;2022-07-06T00:33:31;33.85;31.69;39.38;;
67300;Laerm;57658;51.436;5.980;2022-07-06T00:33:41;35.54;33.92;37.38;;
67300;Laerm;57658;51.436;5.980;2022-07-06T00:33:51;33.82;32.04;37.69;;
67300;Laerm;57658;51.436;5.980;2022-07-06T00:34:02;33.23;31.99;35.00;;
67300;Laerm;57658;51.436;5.980;2022-07-06T00:34:12;35.38;34.05;36.98;;
67300;Laerm;57658;51.436;5.980;2022-07-06T00:34:22;33.98;31.64;35.90;;
67300;Laerm;57658;51.436;5.980;2022-07-06T00:34:33;31.83;30.52;33.45;;
67300;Laerm;57658;51.436;5.980;2022-07-06T00:34:45;33.14;30.59;41.92;;
67300;Laerm;57658;51.436;5.980;2022-07-06T00:34:55;41.97;31.76;56.85;;
67300;Laerm;57658;51.436;5.980;2022-07-06T00:35:05;41.02;32.52;56.70;;
67300;Laerm;57658;51.436;5.980;2022-07-06T00:35:16;33.40;30.65;40.55;;
67300;Laerm;57658;51.436;5.980;2022-07-06T00:35:26;32.04;29.91;36.88;;
67300;Laerm;57658;51.436;5.980;2022-07-06T00:35:36;32.23;30.48;42.95;;
67300;Laerm;57658;51.436;5.980;2022-07-06T00:35:47;31.61;30.42;33.17;;
67300;Laerm;57658;51.436;5.980;2022-07-06T00:35:57;31.67;30.66;33.01;;
67300;Laerm;57658;51.436;5.980;2022-07-06T00:36:08;31.75;30.62;33.34;;
67300;Laerm;57658;51.436;5.980;2022-07-06T00:36:18;31.85;30.29;34.40;;
67300;Laerm;57658;51.436;5.980;2022-07-06T00:36:28;31.80;30.39;34.03;;
67300;Laerm;57658;51.436;5.980;2022-07-06T00:36:38;31.65;30.52;34.38;;
67300;Laerm;57658;51.436;5.980;2022-07-06T00:36:49;32.37;30.93;34.01;;
67300;Laerm;57658;51.436;5.980;2022-07-06T00:36:59;32.50;31.16;33.86;;
67300;Laerm;57658;51.436;5.980;2022-07-06T00:37:09;32.31;31.06;33.86;;
67300;Laerm;57658;51.436;5.980;2022-07-06T00:37:19;32.56;30.97;35.89;;
67300;Laerm;57658;51.436;5.980;2022-07-06T00:37:30;32.99;31.27;35.22;;
67300;Laerm;57658;51.436;5.980;2022-07-06T00:37:40;66.49;32.20;74.23;;
67300;Laerm;57658;51.436;5.980;2022-07-06T00:37:50;68.83;56.55;74.03;;
67300;Laerm;57658;51.436;5.980;2022-07-06T00:38:01;63.66;54.75;74.14;;
67300;Laerm;57658;51.436;5.980;2022-07-06T00:38:11;64.14;53.96;74.77;;
67300;Laerm;57658;51.436;5.980;2022-07-06T00:38:21;63.91;55.62;71.82;;
67300;Laerm;57658;51.436;5.980;2022-07-06T00:38:31;78.87;57.12;84.62;;
67300;Laerm;57658;51.436;5.980;2022-07-06T00:38:42;80.90;76.49;88.86;;
67300;Laerm;57658;51.436;5.980;2022-07-06T00:38:52;82.27;77.10;89.50;;
67300;Laerm;57658;51.436;5.980;2022-07-06T00:39:02;71.13;49.69;81.36;;
67300;Laerm;57658;51.436;5.980;2022-07-06T00:39:13;47.38;42.72;52.10;;
67300;Laerm;57658;51.436;5.980;2022-07-06T00:39:23;41.39;37.83;45.71;;
67300;Laerm;57658;51.436;5.980;2022-07-06T00:39:39;36.92;33.46;43.93;;
67300;Laerm;57658;51.436;5.980;2022-07-06T00:39:49;33.80;31.24;35.86;;
67300;Laerm;57658;51.436;5.980;2022-07-06T00:39:59;32.82;30.86;35.18;;
67300;Laerm;57658;51.436;5.980;2022-07-06T00:40:09;32.84;30.94;36.30;;
67300;Laerm;57658;51.436;5.980;2022-07-06T00:40:20;33.13;30.45;36.46;;
67300;Laerm;57658;51.436;5.980;2022-07-06T00:40:30;34.83;31.30;37.76;;
67300;Laerm;57658;51.436;5.980;2022-07-06T00:40:41;36.99;33.70;40.14;;
67300;Laerm;57658;51.436;5.980;2022-07-06T00:40:51;37.79;34.75;41.62;;
67300;Laerm;57658;51.436;5.980;2022-07-06T00:41:01;35.16;31.53;39.71;;
67300;Laerm;57658;51.436;5.980;2022-07-06T00:41:14;31.96;30.34;33.55;;
67300;Laerm;57658;51.436;5.980;2022-07-06T00:41:25;31.85;30.45;33.39;;
67300;Laerm;57658;51.436;5.980;2022-07-06T00:41:35;31.82;30.67;33.09;;
67300;Laerm;57658;51.436;5.980;2022-07-06T00:41:45;32.37;31.04;34.11;;
67300;Laerm;57658;51.436;5.980;2022-07-06T00:41:56;32.09;30.84;33.86;;
67300;Laerm;57658;51.436;5.980;2022-07-06T00:42:07;31.95;30.78;33.42;;
67300;Laerm;57658;51.436;5.980;2022-07-06T00:42:17;32.06;30.41;33.86;;
67300;Laerm;57658;51.436;5.980;2022-07-06T00:42:27;32.13;30.70;36.84;;
67300;Laerm;57658;51.436;5.980;2022-07-06T00:42:38;32.97;31.08;36.07;;
67300;Laerm;57658;51.436;5.980;2022-07-06T00:42:49;33.38;31.37;40.34;;
67300;Laerm;57658;51.436;5.980;2022-07-06T00:42:59;32.71;31.15;34.73;;
67300;Laerm;57658;51.436;5.980;2022-07-06T00:43:10;32.86;30.89;36.35;;
67300;Laerm;57658;51.436;5.980;2022-07-06T00:43:20;31.69;30.47;34.01;;
67300;Laerm;57658;51.436;5.980;2022-07-06T00:43:51;31.70;29.92;33.59;;
67300;Laerm;57658;51.436;5.980;2022-07-06T00:44:05;32.80;30.18;36.89;;
67300;Laerm;57658;51.436;5.980;2022-07-06T00:44:16;33.07;30.47;36.94;;
67300;Laerm;57658;51.436;5.980;2022-07-06T00:44:26;32.23;30.67;34.96;;
67300;Laerm;57658;51.436;5.980;2022-07-06T00:44:37;33.17;31.20;36.71;;
67300;Laerm;57658;51.436;5.980;2022-07-06T00:44:47;33.63;31.44;39.78;;
67300;Laerm;57658;51.436;5.980;2022-07-06T00:44:57;32.48;31.04;34.10;;
67300;Laerm;57658;51.436;5.980;2022-07-06T00:45:08;32.90;30.89;34.74;;
67300;Laerm;57658;51.436;5.980;2022-07-06T00:45:19;32.76;30.24;36.50;;
67300;Laerm;57658;51.436;5.980;2022-07-06T00:45:29;32.29;30.38;33.94;;
67300;Laerm;57658;51.436;5.980;2022-07-06T00:45:39;32.76;30.62;45.84;;
67300;Laerm;57658;51.436;5.980;2022-07-06T00:45:50;33.66;31.05;49.65;;
67300;Laerm;57658;51.436;5.980;2022-07-06T00:46:00;37.87;31.58;54.07;;
67300;Laerm;57658;51.436;5.980;2022-07-06T00:46:10;32.85;31.12;41.03;;
67300;Laerm;57658;51.436;5.980;2022-07-06T00:46:25;33.16;31.73;34.82;;
67300;Laerm;57658;51.436;5.980;2022-07-06T00:46:36;33.36;31.57;35.42;;
67300;Laerm;57658;51.436;5.980;2022-07-06T00:46:47;32.92;30.92;35.37;;
67300;Laerm;57658;51.436;5.980;2022-07-06T00:46:57;32.12;30.73;35.62;;
67300;Laerm;57658;51.436;5.980;2022-07-06T00:47:07;34.15;32.09;36.86;;
67300;Laerm;57658;51.436;5.980;2022-07-06T00:47:17;35.24;33.47;38.28;;
67300;Laerm;57658;51.436;5.980;2022-07-06T00:47:28;37.29;33.83;41.36;;
67300;Laerm;57658;51.436;5.980;2022-07-06T00:47:38;41.24;36.08;44.88;;
67300;Laerm;57658;51.436;5.980;2022-07-06T00:47:49;39.61;35.74;43.46;;
67300;Laerm;57658;51.436;5.980;2022-07-06T00:47:59;35.48;32.05;39.98;;
67300;Laerm;57658;51.436;5.980;2022-07-06T00:48:10;32.39;30.65;34.38;;
67300;Laerm;57658;51.436;5.980;2022-07-06T00:48:20;32.69;30.77;34.26;;
67300;Laerm;57658;51.436;5.980;2022-07-06T00:48:30;38.49;32.43;44.80;;
67300;Laerm;57658;51.436;5.980;2022-07-06T00:48:41;51.99;42.36;61.29;;
67300;Laerm;57658;51.436;5.980;2022-07-06T00:48:51;56.67;40.92;65.39;;
67300;Laerm;57658;51.436;5.980;2022-07-06T00:49:02;40.63;31.80;45.25;;
67300;Laerm;57658;51.436;5.980;2022-07-06T00:49:12;33.87;31.83;39.01;;
67300;Laerm;57658;51.436;5.980;2022-07-06T00:49:42;34.37;31.34;47.09;;
67300;Laerm;57658;51.436;5.980;2022-07-06T00:50:12;32.99;30.99;38.83;;
67300;Laerm;57658;51.436;5.980;2022-07-06T00:50:28;33.77;31.14;42.40;;
67300;Laerm;57658;51.436;5.980;2022-07-06T00:50:38;32.74;31.00;34.50;;
67300;Laerm;57658;51.436;5.980;2022-07-06T00:50:49;32.37;30.73;34.58;;
67300;Laerm;57658;51.436;5.980;2022-07-06T00:50:59;32.36;30.58;34.24;;
67300;Laerm;57658;51.436;5.980;2022-07-06T00:51:10;32.55;30.85;37.81;;
67300;Laerm;57658;51.436;5.980;2022-07-06T00:51:22;33.64;31.17;37.16;;
67300;Laerm;57658;51.436;5.980;2022-07-06T00:51:35;47.75;34.60;56.97;;
67300;Laerm;57658;51.436;5.980;2022-07-06T00:51:46;58.31;39.70;64.62;;
67300;Laerm;57658;51.436;5.980;2022-07-06T00:51:56;41.72;38.68;44.23;;
67300;Laerm;57658;51.436;5.980;2022-07-06T00:52:08;39.48;35.01;43.51;;
67300;Laerm;57658;51.436;5.980;2022-07-06T00:52:18;36.34;34.25;38.99;;
67300;Laerm;57658;51.436;5.980;2022-07-06T00:52:28;36.94;34.26;39.91;;
67300;Laerm;57658;51.436;5.980;2022-07-06T00:52:39;38.86;35.87;42.97;;
67300;Laerm;57658;51.436;5.980;2022-07-06T00:53:02;56.66;45.29;62.53;;
67300;Laerm;57658;51.436;5.980;2022-07-06T00:53:12;44.18;33.88;48.61;;
67300;Laerm;57658;51.436;5.980;2022-07-06T00:53:23;32.45;30.69;34.90;;
67300;Laerm;57658;51.436;5.980;2022-07-06T00:53:33;32.37;30.41;35.53;;
67300;Laerm;57658;51.436;5.980;2022-07-06T00:53:45;32.16;30.69;37.80;;
67300;Laerm;57658;51.436;5.980;2022-07-06T00:53:58;31.83;30.41;33.54;;
67300;Laerm;57658;51.436;5.980;2022-07-06T00:54:08;31.48;29.81;35.68;;
67300;Laerm;57658;51.436;5.980;2022-07-06T00:54:19;31.38;29.91;32.80;;
67300;Laerm;57658;51.436;5.980;2022-07-06T00:54:30;31.84;30.49;33.46;;
67300;Laerm;57658;51.436;5.980;2022-07-06T00:54:41;31.43;30.24;34.57;;
67300;Laerm;57658;51.436;5.980;2022-07-06T00:54:52;31.46;30.08;32.83;;
67300;Laerm;57658;51.436;5.980;2022-07-06T00:55:04;31.79;30.64;33.03;;
67300;Laerm;57658;51.436;5.980;2022-07-06T00:55:16;32.10;30.79;36.82;;
67300;Laerm;57658;51.436;5.980;2022-07-06T00:55:27;31.86;30.37;34.20;;
67300;Laerm;57658;51.436;5.980;2022-07-06T00:55:38;32.18;30.69;35.79;;
67300;Laerm;57658;51.436;5.980;2022-07-06T00:55:49;32.01;30.58;36.36;;
67300;Laerm;57658;51.436;5.980;2022-07-06T00:56:00;32.00;30.67;34.61;;
67300;Laerm;57658;51.436;5.980;2022-07-06T00:56:10;54.56;30.64;64.66;;
67300;Laerm;57658;51.436;5.980;2022-07-06T00:56:21;33.02;30.37;38.07;;
67300;Laerm;57658;51.436;5.980;2022-07-06T00:56:31;32.01;30.39;34.10;;
67300;Laerm;57658;51.436;5.980;2022-07-06T00:56:42;32.51;30.98;34.22;;
67300;Laerm;57658;51.436;5.980;2022-07-06T00:56:52;33.19;31.35;34.74;;
67300;Laerm;57658;51.436;5.980;2022-07-06T00:57:03;33.39;31.55;35.69;;
67300;Laerm;57658;51.436;5.980;2022-07-06T00:57:13;33.08;31.52;36.82;;
67300;Laerm;57658;51.436;5.980;2022-07-06T00:57:24;33.81;32.21;35.48;;
67300;Laerm;57658;51.436;5.980;2022-07-06T00:57:34;34.13;32.28;36.95;;
67300;Laerm;57658;51.436;5.980;2022-07-06T00:57:45;32.48;30.64;35.42;;
67300;Laerm;57658;51.436;5.980;2022-07-06T00:57:55;32.41;30.75;35.31;;
67300;Laerm;57658;51.436;5.980;2022-07-06T00:58:06;34.83;31.74;42.62;;
67300;Laerm;57658;51.436;5.980;2022-07-06T00:58:17;35.90;33.44;43.42;;
67300;Laerm;57658;51.436;5.980;2022-07-06T00:58:27;35.22;33.04;37.84;;
67300;Laerm;57658;51.436;5.980;2022-07-06T00:58:37;33.10;31.19;36.28;;
67300;Laerm;57658;51.436;5.980;2022-07-06T00:58:49;32.61;30.81;34.66;;
67300;Laerm;57658;51.436;5.980;2022-07-06T00:59:00;33.07;31.26;35.32;;
67300;Laerm;57658;51.436;5.980;2022-07-06T00:59:11;32.85;30.95;34.46;;
67300;Laerm;57658;51.436;5.980;2022-07-06T00:59:22;32.07;30.61;34.37;;
67300;Laerm;57658;51.436;5.980;2022-07-06T00:59:33;32.79;30.93;34.59;;
67300;Laerm;57658;51.436;5.980;2022-07-06T00:59:43;33.04;30.97;34.69;;
67300;Laerm;57658;51.436;5.980;2022-07-06T00:59:53;31.94;30.18;33.60;;
67300;Laerm;57658;51.436;5.980;2022-07-06T01:00:05;32.76;31.05;35.01;;